sensor_id;sensor_type;location;lat;lon;timestamp;P1;durP1;ratioP1;P2;durP2;ratioP2
84254;SDS011;74400;44.692;18.998;2024-03-22T00:01:40;35.85;;;16.48;;
84254;SDS011;74400;44.692;18.998;2024-03-22T00:04:05;25.75;;;13.20;;
84254;SDS011;74400;44.692;18.998;2024-03-22T00:06:31;25.17;;;12.48;;
84254;SDS011;74400;44.692;18.998;2024-03-22T00:08:57;19.02;;;10.60;;
84254;SDS011;74400;44.692;18.998;2024-03-22T00:11:22;20.38;;;10.15;;
84254;SDS011;74400;44.692;18.998;2024-03-22T00:13:48;19.85;;;9.57;;
84254;SDS011;74400;44.692;18.998;2024-03-22T00:16:14;14.82;;;8.98;;
84254;SDS011;74400;44.692;18.998;2024-03-22T00:18:39;16.02;;;9.40;;
84254;SDS011;74400;44.692;18.998;2024-03-22T00:21:06;15.15;;;8.77;;
84254;SDS011;74400;44.692;18.998;2024-03-22T00:23:32;21.38;;;9.85;;
84254;SDS011;74400;44.692;18.998;2024-03-22T00:25:57;13.40;;;8.48;;
84254;SDS011;74400;44.692;18.998;2024-03-22T00:28:23;13.93;;;7.93;;
84254;SDS011;74400;44.692;18.998;2024-03-22T00:30:48;21.42;;;8.90;;
84254;SDS011;74400;44.692;18.998;2024-03-22T00:33:14;16.77;;;8.27;;
84254;SDS011;74400;44.692;18.998;2024-03-22T00:35:40;17.00;;;8.48;;
84254;SDS011;74400;44.692;18.998;2024-03-22T00:40:31;16.58;;;9.45;;
84254;SDS011;74400;44.692;18.998;2024-03-22T00:42:58;14.10;;;7.97;;
84254;SDS011;74400;44.692;18.998;2024-03-22T00:45:24;15.60;;;7.68;;
84254;SDS011;74400;44.692;18.998;2024-03-22T00:47:49;13.88;;;8.02;;
84254;SDS011;74400;44.692;18.998;2024-03-22T00:50:15;12.38;;;7.72;;
84254;SDS011;74400;44.692;18.998;2024-03-22T00:52:41;17.30;;;7.82;;
84254;SDS011;74400;44.692;18.998;2024-03-22T00:55:07;18.05;;;7.32;;
84254;SDS011;74400;44.692;18.998;2024-03-22T00:57:33;15.88;;;8.63;;
84254;SDS011;74400;44.692;18.998;2024-03-22T00:59:58;16.92;;;8.10;;
84254;SDS011;74400;44.692;18.998;2024-03-22T01:02:24;14.90;;;8.18;;
84254;SDS011;74400;44.692;18.998;2024-03-22T01:04:50;14.27;;;7.63;;
84254;SDS011;74400;44.692;18.998;2024-03-22T01:07:15;15.95;;;8.13;;
84254;SDS011;74400;44.692;18.998;2024-03-22T01:09:41;13.80;;;7.70;;
84254;SDS011;74400;44.692;18.998;2024-03-22T01:12:09;16.40;;;8.07;;
84254;SDS011;74400;44.692;18.998;2024-03-22T01:14:35;15.68;;;7.70;;
84254;SDS011;74400;44.692;18.998;2024-03-22T01:17:01;14.50;;;7.43;;
84254;SDS011;74400;44.692;18.998;2024-03-22T01:19:27;14.15;;;7.88;;
84254;SDS011;74400;44.692;18.998;2024-03-22T01:21:53;11.38;;;7.30;;
84254;SDS011;74400;44.692;18.998;2024-03-22T01:24:18;13.93;;;7.80;;
84254;SDS011;74400;44.692;18.998;2024-03-22T01:26:44;20.27;;;8.00;;
84254;SDS011;74400;44.692;18.998;2024-03-22T01:29:10;12.80;;;7.43;;
84254;SDS011;74400;44.692;18.998;2024-03-22T01:31:35;14.88;;;7.63;;
84254;SDS011;74400;44.692;18.998;2024-03-22T01:34:01;14.27;;;7.80;;
84254;SDS011;74400;44.692;18.998;2024-03-22T01:36:27;14.80;;;7.25;;
84254;SDS011;74400;44.692;18.998;2024-03-22T01:38:52;16.23;;;7.50;;
84254;SDS011;74400;44.692;18.998;2024-03-22T01:41:18;15.88;;;7.22;;
84254;SDS011;74400;44.692;18.998;2024-03-22T01:43:43;13.63;;;7.13;;
84254;SDS011;74400;44.692;18.998;2024-03-22T01:46:09;11.70;;;7.03;;
84254;SDS011;74400;44.692;18.998;2024-03-22T01:48:35;17.88;;;7.30;;
84254;SDS011;74400;44.692;18.998;2024-03-22T01:51:02;12.73;;;7.40;;
84254;SDS011;74400;44.692;18.998;2024-03-22T01:53:29;13.57;;;6.97;;
84254;SDS011;74400;44.692;18.998;2024-03-22T01:55:55;13.95;;;7.15;;
84254;SDS011;74400;44.692;18.998;2024-03-22T01:58:21;13.57;;;8.20;;
84254;SDS011;74400;44.692;18.998;2024-03-22T02:00:47;15.30;;;8.57;;
84254;SDS011;74400;44.692;18.998;2024-03-22T02:03:14;13.65;;;7.30;;
84254;SDS011;74400;44.692;18.998;2024-03-22T02:05:59;13.68;;;7.40;;
84254;SDS011;74400;44.692;18.998;2024-03-22T02:08:24;14.27;;;7.50;;
84254;SDS011;74400;44.692;18.998;2024-03-22T02:10:50;12.13;;;6.95;;
84254;SDS011;74400;44.692;18.998;2024-03-22T02:13:18;14.82;;;7.38;;
84254;SDS011;74400;44.692;18.998;2024-03-22T02:15:44;19.02;;;7.30;;
84254;SDS011;74400;44.692;18.998;2024-03-22T02:18:10;12.27;;;7.40;;
84254;SDS011;74400;44.692;18.998;2024-03-22T02:20:35;11.07;;;6.45;;
84254;SDS011;74400;44.692;18.998;2024-03-22T02:23:01;10.30;;;6.15;;
84254;SDS011;74400;44.692;18.998;2024-03-22T02:25:27;13.48;;;7.85;;
84254;SDS011;74400;44.692;18.998;2024-03-22T02:27:52;16.20;;;7.70;;
84254;SDS011;74400;44.692;18.998;2024-03-22T02:30:18;13.07;;;8.00;;
84254;SDS011;74400;44.692;18.998;2024-03-22T02:32:44;13.70;;;8.02;;
84254;SDS011;74400;44.692;18.998;2024-03-22T02:35:09;12.07;;;8.02;;
84254;SDS011;74400;44.692;18.998;2024-03-22T02:37:35;13.68;;;7.47;;
84254;SDS011;74400;44.692;18.998;2024-03-22T02:40:01;14.23;;;7.45;;
84254;SDS011;74400;44.692;18.998;2024-03-22T02:42:26;13.52;;;7.18;;
84254;SDS011;74400;44.692;18.998;2024-03-22T02:44:52;17.20;;;7.85;;
84254;SDS011;74400;44.692;18.998;2024-03-22T02:47:18;13.52;;;7.72;;
84254;SDS011;74400;44.692;18.998;2024-03-22T02:49:43;19.33;;;8.70;;
84254;SDS011;74400;44.692;18.998;2024-03-22T02:52:09;19.52;;;10.30;;
84254;SDS011;74400;44.692;18.998;2024-03-22T02:54:35;19.98;;;9.95;;
84254;SDS011;74400;44.692;18.998;2024-03-22T02:57:01;27.75;;;12.68;;
84254;SDS011;74400;44.692;18.998;2024-03-22T02:59:27;26.98;;;12.23;;
84254;SDS011;74400;44.692;18.998;2024-03-22T03:01:55;16.90;;;8.65;;
84254;SDS011;74400;44.692;18.998;2024-03-22T03:04:21;20.20;;;10.25;;
84254;SDS011;74400;44.692;18.998;2024-03-22T03:06:47;23.17;;;11.45;;
84254;SDS011;74400;44.692;18.998;2024-03-22T03:09:12;25.63;;;11.90;;
84254;SDS011;74400;44.692;18.998;2024-03-22T03:11:41;26.50;;;11.95;;
84254;SDS011;74400;44.692;18.998;2024-03-22T03:14:07;13.30;;;7.93;;
84254;SDS011;74400;44.692;18.998;2024-03-22T03:16:32;16.02;;;7.68;;
84254;SDS011;74400;44.692;18.998;2024-03-22T03:18:58;13.73;;;8.32;;
84254;SDS011;74400;44.692;18.998;2024-03-22T03:21:24;15.00;;;8.23;;
84254;SDS011;74400;44.692;18.998;2024-03-22T03:23:50;14.43;;;8.82;;
84254;SDS011;74400;44.692;18.998;2024-03-22T03:26:15;17.08;;;8.73;;
84254;SDS011;74400;44.692;18.998;2024-03-22T03:28:41;11.60;;;6.85;;
84254;SDS011;74400;44.692;18.998;2024-03-22T03:31:07;15.05;;;7.65;;
84254;SDS011;74400;44.692;18.998;2024-03-22T03:33:32;15.15;;;7.63;;
84254;SDS011;74400;44.692;18.998;2024-03-22T03:35:58;13.02;;;7.38;;
84254;SDS011;74400;44.692;18.998;2024-03-22T03:38:24;18.77;;;7.70;;
84254;SDS011;74400;44.692;18.998;2024-03-22T03:40:49;24.60;;;8.70;;
84254;SDS011;74400;44.692;18.998;2024-03-22T03:43:15;15.95;;;9.02;;
84254;SDS011;74400;44.692;18.998;2024-03-22T03:45:41;12.88;;;7.82;;
84254;SDS011;74400;44.692;18.998;2024-03-22T03:48:06;13.13;;;8.35;;
84254;SDS011;74400;44.692;18.998;2024-03-22T03:50:32;11.65;;;7.47;;
84254;SDS011;74400;44.692;18.998;2024-03-22T03:52:58;14.32;;;8.63;;
84254;SDS011;74400;44.692;18.998;2024-03-22T03:55:23;15.10;;;8.30;;
84254;SDS011;74400;44.692;18.998;2024-03-22T03:57:52;13.90;;;8.57;;
84254;SDS011;74400;44.692;18.998;2024-03-22T04:00:20;18.45;;;8.82;;
84254;SDS011;74400;44.692;18.998;2024-03-22T04:02:48;17.83;;;8.60;;
84254;SDS011;74400;44.692;18.998;2024-03-22T04:05:15;22.30;;;10.23;;
84254;SDS011;74400;44.692;18.998;2024-03-22T04:07:40;65.93;;;27.40;;
84254;SDS011;74400;44.692;18.998;2024-03-22T04:10:07;44.33;;;19.63;;
84254;SDS011;74400;44.692;18.998;2024-03-22T04:12:33;39.00;;;16.42;;
84254;SDS011;74400;44.692;18.998;2024-03-22T04:14:59;33.03;;;15.00;;
84254;SDS011;74400;44.692;18.998;2024-03-22T04:17:25;28.15;;;13.32;;
84254;SDS011;74400;44.692;18.998;2024-03-22T04:19:51;21.52;;;10.13;;
84254;SDS011;74400;44.692;18.998;2024-03-22T04:22:17;16.90;;;9.23;;
84254;SDS011;74400;44.692;18.998;2024-03-22T04:24:43;23.10;;;10.35;;
84254;SDS011;74400;44.692;18.998;2024-03-22T04:27:09;22.73;;;10.38;;
84254;SDS011;74400;44.692;18.998;2024-03-22T04:29:34;24.95;;;11.27;;
84254;SDS011;74400;44.692;18.998;2024-03-22T04:32:00;21.10;;;10.20;;
84254;SDS011;74400;44.692;18.998;2024-03-22T04:34:25;19.50;;;10.35;;
84254;SDS011;74400;44.692;18.998;2024-03-22T04:36:51;20.52;;;9.60;;
84254;SDS011;74400;44.692;18.998;2024-03-22T04:39:18;17.95;;;9.98;;
84254;SDS011;74400;44.692;18.998;2024-03-22T04:41:44;19.67;;;10.60;;
84254;SDS011;74400;44.692;18.998;2024-03-22T04:44:10;19.55;;;10.90;;
84254;SDS011;74400;44.692;18.998;2024-03-22T04:46:36;32.55;;;11.98;;
84254;SDS011;74400;44.692;18.998;2024-03-22T04:49:01;25.83;;;11.25;;
84254;SDS011;74400;44.692;18.998;2024-03-22T04:51:27;21.10;;;12.27;;
84254;SDS011;74400;44.692;18.998;2024-03-22T04:53:52;22.88;;;11.23;;
84254;SDS011;74400;44.692;18.998;2024-03-22T04:56:18;27.92;;;11.50;;
84254;SDS011;74400;44.692;18.998;2024-03-22T04:58:44;22.85;;;9.93;;
84254;SDS011;74400;44.692;18.998;2024-03-22T05:01:10;22.75;;;11.18;;
84254;SDS011;74400;44.692;18.998;2024-03-22T05:03:37;19.60;;;10.15;;
84254;SDS011;74400;44.692;18.998;2024-03-22T05:06:03;20.80;;;10.40;;
84254;SDS011;74400;44.692;18.998;2024-03-22T05:08:30;19.35;;;9.25;;
84254;SDS011;74400;44.692;18.998;2024-03-22T05:10:56;21.38;;;9.68;;
84254;SDS011;74400;44.692;18.998;2024-03-22T05:13:21;24.98;;;9.60;;
84254;SDS011;74400;44.692;18.998;2024-03-22T05:15:47;22.35;;;8.48;;
84254;SDS011;74400;44.692;18.998;2024-03-22T05:18:13;16.45;;;9.73;;
84254;SDS011;74400;44.692;18.998;2024-03-22T05:20:39;22.33;;;11.18;;
84254;SDS011;74400;44.692;18.998;2024-03-22T05:23:04;19.02;;;9.13;;
84254;SDS011;74400;44.692;18.998;2024-03-22T05:25:30;20.15;;;8.95;;
84254;SDS011;74400;44.692;18.998;2024-03-22T05:27:56;21.70;;;9.60;;
84254;SDS011;74400;44.692;18.998;2024-03-22T05:30:21;18.95;;;9.95;;
84254;SDS011;74400;44.692;18.998;2024-03-22T05:32:47;19.88;;;9.00;;
84254;SDS011;74400;44.692;18.998;2024-03-22T05:35:14;18.42;;;9.10;;
84254;SDS011;74400;44.692;18.998;2024-03-22T05:37:40;20.15;;;9.95;;
84254;SDS011;74400;44.692;18.998;2024-03-22T05:40:07;24.33;;;11.85;;
84254;SDS011;74400;44.692;18.998;2024-03-22T05:42:34;27.20;;;11.70;;
84254;SDS011;74400;44.692;18.998;2024-03-22T05:44:59;23.25;;;12.02;;
84254;SDS011;74400;44.692;18.998;2024-03-22T05:47:25;25.33;;;12.80;;
84254;SDS011;74400;44.692;18.998;2024-03-22T05:49:51;23.58;;;11.63;;
84254;SDS011;74400;44.692;18.998;2024-03-22T05:52:17;28.10;;;11.52;;
84254;SDS011;74400;44.692;18.998;2024-03-22T05:54:43;28.55;;;11.93;;
84254;SDS011;74400;44.692;18.998;2024-03-22T05:57:11;30.50;;;12.95;;
84254;SDS011;74400;44.692;18.998;2024-03-22T05:59:37;28.42;;;14.57;;
84254;SDS011;74400;44.692;18.998;2024-03-22T06:02:02;31.73;;;14.80;;
84254;SDS011;74400;44.692;18.998;2024-03-22T06:04:28;36.90;;;15.02;;
84254;SDS011;74400;44.692;18.998;2024-03-22T06:06:54;26.10;;;11.80;;
84254;SDS011;74400;44.692;18.998;2024-03-22T06:09:20;26.02;;;11.18;;
84254;SDS011;74400;44.692;18.998;2024-03-22T06:12:12;24.55;;;12.68;;
84254;SDS011;74400;44.692;18.998;2024-03-22T06:18:03;20.98;;;12.23;;
84254;SDS011;74400;44.692;18.998;2024-03-22T06:20:29;24.63;;;11.77;;
84254;SDS011;74400;44.692;18.998;2024-03-22T06:22:55;19.73;;;11.10;;
84254;SDS011;74400;44.692;18.998;2024-03-22T06:25:23;21.30;;;11.43;;
84254;SDS011;74400;44.692;18.998;2024-03-22T06:27:50;22.65;;;12.80;;
84254;SDS011;74400;44.692;18.998;2024-03-22T06:30:16;26.88;;;14.45;;
84254;SDS011;74400;44.692;18.998;2024-03-22T06:32:42;26.42;;;13.93;;
84254;SDS011;74400;44.692;18.998;2024-03-22T06:35:08;23.35;;;12.65;;
84254;SDS011;74400;44.692;18.998;2024-03-22T06:37:37;23.83;;;12.98;;
84254;SDS011;74400;44.692;18.998;2024-03-22T06:40:04;23.90;;;14.40;;
84254;SDS011;74400;44.692;18.998;2024-03-22T06:42:32;21.38;;;13.07;;
84254;SDS011;74400;44.692;18.998;2024-03-22T06:44:58;22.83;;;11.75;;
84254;SDS011;74400;44.692;18.998;2024-03-22T06:47:25;22.95;;;13.77;;
84254;SDS011;74400;44.692;18.998;2024-03-22T06:49:51;23.83;;;12.40;;
84254;SDS011;74400;44.692;18.998;2024-03-22T06:52:17;32.80;;;19.13;;
84254;SDS011;74400;44.692;18.998;2024-03-22T06:54:43;22.50;;;13.68;;
84254;SDS011;74400;44.692;18.998;2024-03-22T06:57:15;19.90;;;12.95;;
84254;SDS011;74400;44.692;18.998;2024-03-22T06:59:43;23.85;;;13.05;;
84254;SDS011;74400;44.692;18.998;2024-03-22T07:02:10;22.88;;;13.40;;
84254;SDS011;74400;44.692;18.998;2024-03-22T07:04:39;29.40;;;18.73;;
84254;SDS011;74400;44.692;18.998;2024-03-22T07:07:08;23.48;;;12.18;;
84254;SDS011;74400;44.692;18.998;2024-03-22T07:09:36;19.40;;;12.05;;
84254;SDS011;74400;44.692;18.998;2024-03-22T07:12:08;19.85;;;11.25;;
84254;SDS011;74400;44.692;18.998;2024-03-22T07:14:38;23.45;;;13.98;;
84254;SDS011;74400;44.692;18.998;2024-03-22T07:17:10;19.98;;;12.68;;
84254;SDS011;74400;44.692;18.998;2024-03-22T07:19:37;19.50;;;12.18;;
84254;SDS011;74400;44.692;18.998;2024-03-22T07:22:03;21.33;;;12.68;;
84254;SDS011;74400;44.692;18.998;2024-03-22T07:28:01;20.38;;;11.98;;
84254;SDS011;74400;44.692;18.998;2024-03-22T07:30:28;19.20;;;11.85;;
84254;SDS011;74400;44.692;18.998;2024-03-22T07:35:44;18.50;;;11.32;;
84254;SDS011;74400;44.692;18.998;2024-03-22T07:38:10;22.30;;;11.10;;
84254;SDS011;74400;44.692;18.998;2024-03-22T07:40:36;17.65;;;11.10;;
84254;SDS011;74400;44.692;18.998;2024-03-22T07:43:02;17.55;;;11.30;;
84254;SDS011;74400;44.692;18.998;2024-03-22T07:45:30;16.52;;;11.00;;
84254;SDS011;74400;44.692;18.998;2024-03-22T07:47:56;23.10;;;13.35;;
84254;SDS011;74400;44.692;18.998;2024-03-22T07:50:21;19.02;;;12.00;;
84254;SDS011;74400;44.692;18.998;2024-03-22T07:52:47;19.77;;;11.98;;
84254;SDS011;74400;44.692;18.998;2024-03-22T07:55:13;18.55;;;11.23;;
84254;SDS011;74400;44.692;18.998;2024-03-22T07:57:38;16.10;;;10.77;;
84254;SDS011;74400;44.692;18.998;2024-03-22T08:00:04;17.40;;;11.18;;
84254;SDS011;74400;44.692;18.998;2024-03-22T08:02:37;18.30;;;11.88;;
84254;SDS011;74400;44.692;18.998;2024-03-22T08:05:02;22.08;;;14.18;;
84254;SDS011;74400;44.692;18.998;2024-03-22T08:07:29;17.13;;;11.35;;
84254;SDS011;74400;44.692;18.998;2024-03-22T08:09:54;17.92;;;11.63;;
84254;SDS011;74400;44.692;18.998;2024-03-22T08:12:21;18.55;;;13.30;;
84254;SDS011;74400;44.692;18.998;2024-03-22T08:14:47;19.33;;;12.40;;
84254;SDS011;74400;44.692;18.998;2024-03-22T08:17:12;18.63;;;11.55;;
84254;SDS011;74400;44.692;18.998;2024-03-22T08:19:40;17.70;;;11.02;;
84254;SDS011;74400;44.692;18.998;2024-03-22T08:24:31;19.05;;;11.95;;
84254;SDS011;74400;44.692;18.998;2024-03-22T08:26:57;19.13;;;10.63;;
84254;SDS011;74400;44.692;18.998;2024-03-22T08:29:23;17.80;;;11.05;;
84254;SDS011;74400;44.692;18.998;2024-03-22T08:31:48;17.17;;;10.45;;
84254;SDS011;74400;44.692;18.998;2024-03-22T08:34:14;17.30;;;11.65;;
84254;SDS011;74400;44.692;18.998;2024-03-22T08:36:39;19.05;;;10.95;;
84254;SDS011;74400;44.692;18.998;2024-03-22T08:39:06;19.75;;;12.05;;
84254;SDS011;74400;44.692;18.998;2024-03-22T08:41:35;17.52;;;10.23;;
84254;SDS011;74400;44.692;18.998;2024-03-22T08:44:02;16.85;;;10.25;;
84254;SDS011;74400;44.692;18.998;2024-03-22T08:46:28;17.10;;;11.80;;
84254;SDS011;74400;44.692;18.998;2024-03-22T08:48:57;17.80;;;10.70;;
84254;SDS011;74400;44.692;18.998;2024-03-22T08:51:23;17.13;;;10.60;;
84254;SDS011;74400;44.692;18.998;2024-03-22T08:53:52;18.02;;;10.88;;
84254;SDS011;74400;44.692;18.998;2024-03-22T08:56:17;16.65;;;10.48;;
84254;SDS011;74400;44.692;18.998;2024-03-22T08:58:43;16.98;;;10.65;;
84254;SDS011;74400;44.692;18.998;2024-03-22T09:01:09;19.52;;;10.32;;
84254;SDS011;74400;44.692;18.998;2024-03-22T09:03:36;17.48;;;10.95;;
84254;SDS011;74400;44.692;18.998;2024-03-22T09:06:02;18.20;;;11.32;;
84254;SDS011;74400;44.692;18.998;2024-03-22T09:08:28;19.60;;;11.88;;
84254;SDS011;74400;44.692;18.998;2024-03-22T09:10:54;19.23;;;11.45;;
84254;SDS011;74400;44.692;18.998;2024-03-22T09:13:20;17.45;;;11.00;;
84254;SDS011;74400;44.692;18.998;2024-03-22T09:15:46;18.67;;;10.88;;
84254;SDS011;74400;44.692;18.998;2024-03-22T09:18:12;17.60;;;11.10;;
84254;SDS011;74400;44.692;18.998;2024-03-22T09:20:38;23.60;;;11.60;;
84254;SDS011;74400;44.692;18.998;2024-03-22T09:23:04;24.35;;;14.55;;
84254;SDS011;74400;44.692;18.998;2024-03-22T09:25:30;19.17;;;11.80;;
84254;SDS011;74400;44.692;18.998;2024-03-22T09:27:56;19.02;;;12.10;;
84254;SDS011;74400;44.692;18.998;2024-03-22T09:30:22;29.65;;;18.42;;
84254;SDS011;74400;44.692;18.998;2024-03-22T09:32:47;23.67;;;15.77;;
84254;SDS011;74400;44.692;18.998;2024-03-22T09:35:13;25.02;;;16.65;;
84254;SDS011;74400;44.692;18.998;2024-03-22T09:37:43;22.60;;;14.32;;
84254;SDS011;74400;44.692;18.998;2024-03-22T09:40:09;19.50;;;13.25;;
84254;SDS011;74400;44.692;18.998;2024-03-22T09:42:38;18.83;;;12.07;;
84254;SDS011;74400;44.692;18.998;2024-03-22T09:47:34;17.60;;;11.50;;
84254;SDS011;74400;44.692;18.998;2024-03-22T09:50:02;15.25;;;10.35;;
84254;SDS011;74400;44.692;18.998;2024-03-22T09:52:33;19.05;;;10.27;;
84254;SDS011;74400;44.692;18.998;2024-03-22T09:54:59;21.05;;;12.68;;
84254;SDS011;74400;44.692;18.998;2024-03-22T09:57:30;18.02;;;10.85;;
84254;SDS011;74400;44.692;18.998;2024-03-22T10:02:54;18.80;;;11.18;;
84254;SDS011;74400;44.692;18.998;2024-03-22T10:05:20;19.45;;;9.98;;
84254;SDS011;74400;44.692;18.998;2024-03-22T10:07:46;21.10;;;11.80;;
84254;SDS011;74400;44.692;18.998;2024-03-22T10:10:12;21.80;;;12.45;;
84254;SDS011;74400;44.692;18.998;2024-03-22T10:12:39;19.00;;;10.02;;
84254;SDS011;74400;44.692;18.998;2024-03-22T10:15:05;20.05;;;10.45;;
84254;SDS011;74400;44.692;18.998;2024-03-22T10:17:36;19.52;;;10.60;;
84254;SDS011;74400;44.692;18.998;2024-03-22T10:20:03;22.42;;;11.30;;
84254;SDS011;74400;44.692;18.998;2024-03-22T10:22:29;16.45;;;9.38;;
84254;SDS011;74400;44.692;18.998;2024-03-22T10:24:55;17.20;;;10.10;;
84254;SDS011;74400;44.692;18.998;2024-03-22T10:27:26;24.48;;;10.88;;
84254;SDS011;74400;44.692;18.998;2024-03-22T10:29:54;20.95;;;11.57;;
84254;SDS011;74400;44.692;18.998;2024-03-22T10:32:20;17.88;;;9.52;;
84254;SDS011;74400;44.692;18.998;2024-03-22T10:34:46;21.15;;;12.18;;
84254;SDS011;74400;44.692;18.998;2024-03-22T10:37:13;21.52;;;10.95;;
84254;SDS011;74400;44.692;18.998;2024-03-22T10:39:41;20.05;;;9.75;;
84254;SDS011;74400;44.692;18.998;2024-03-22T10:42:11;19.30;;;9.32;;
84254;SDS011;74400;44.692;18.998;2024-03-22T10:44:45;21.38;;;10.85;;
84254;SDS011;74400;44.692;18.998;2024-03-22T10:47:17;17.88;;;9.88;;
84254;SDS011;74400;44.692;18.998;2024-03-22T10:49:53;18.30;;;9.45;;
84254;SDS011;74400;44.692;18.998;2024-03-22T10:52:37;20.25;;;10.13;;
84254;SDS011;74400;44.692;18.998;2024-03-22T10:55:10;18.65;;;9.77;;
84254;SDS011;74400;44.692;18.998;2024-03-22T10:57:42;20.17;;;9.57;;
84254;SDS011;74400;44.692;18.998;2024-03-22T11:00:11;18.85;;;9.68;;
84254;SDS011;74400;44.692;18.998;2024-03-22T11:02:43;17.95;;;9.85;;
84254;SDS011;74400;44.692;18.998;2024-03-22T11:05:17;23.05;;;11.05;;
84254;SDS011;74400;44.692;18.998;2024-03-22T11:07:44;21.55;;;9.15;;
84254;SDS011;74400;44.692;18.998;2024-03-22T11:10:13;19.70;;;9.25;;
84254;SDS011;74400;44.692;18.998;2024-03-22T11:12:40;15.80;;;8.85;;
84254;SDS011;74400;44.692;18.998;2024-03-22T11:15:06;20.65;;;10.45;;
84254;SDS011;74400;44.692;18.998;2024-03-22T11:17:32;16.08;;;8.93;;
84254;SDS011;74400;44.692;18.998;2024-03-22T11:20:01;20.05;;;8.82;;
84254;SDS011;74400;44.692;18.998;2024-03-22T11:22:29;18.02;;;9.02;;
84254;SDS011;74400;44.692;18.998;2024-03-22T11:24:55;16.10;;;8.15;;
84254;SDS011;74400;44.692;18.998;2024-03-22T11:27:23;17.80;;;8.10;;
84254;SDS011;74400;44.692;18.998;2024-03-22T11:29:49;17.63;;;8.50;;
84254;SDS011;74400;44.692;18.998;2024-03-22T11:32:16;15.35;;;8.02;;
84254;SDS011;74400;44.692;18.998;2024-03-22T11:34:43;15.52;;;7.40;;
84254;SDS011;74400;44.692;18.998;2024-03-22T11:37:09;17.20;;;8.27;;
84254;SDS011;74400;44.692;18.998;2024-03-22T11:39:39;14.55;;;8.27;;
84254;SDS011;74400;44.692;18.998;2024-03-22T11:42:05;16.95;;;8.30;;
84254;SDS011;74400;44.692;18.998;2024-03-22T11:44:36;15.73;;;8.15;;
84254;SDS011;74400;44.692;18.998;2024-03-22T11:47:04;15.68;;;7.35;;
84254;SDS011;74400;44.692;18.998;2024-03-22T11:49:30;15.05;;;8.27;;
84254;SDS011;74400;44.692;18.998;2024-03-22T11:51:56;13.50;;;8.32;;
84254;SDS011;74400;44.692;18.998;2024-03-22T11:54:22;15.20;;;8.60;;
84254;SDS011;74400;44.692;18.998;2024-03-22T11:56:51;15.27;;;8.02;;
84254;SDS011;74400;44.692;18.998;2024-03-22T11:59:20;11.93;;;7.63;;
84254;SDS011;74400;44.692;18.998;2024-03-22T12:01:46;14.85;;;8.23;;
84254;SDS011;74400;44.692;18.998;2024-03-22T12:04:12;17.38;;;8.57;;
84254;SDS011;74400;44.692;18.998;2024-03-22T12:06:41;10.13;;;6.60;;
84254;SDS011;74400;44.692;18.998;2024-03-22T12:09:11;11.70;;;6.78;;
84254;SDS011;74400;44.692;18.998;2024-03-22T12:11:40;12.55;;;7.57;;
84254;SDS011;74400;44.692;18.998;2024-03-22T12:14:06;11.02;;;6.35;;
84254;SDS011;74400;44.692;18.998;2024-03-22T12:16:32;11.88;;;7.10;;
84254;SDS011;74400;44.692;18.998;2024-03-22T12:18:58;11.32;;;7.70;;
84254;SDS011;74400;44.692;18.998;2024-03-22T12:21:24;12.10;;;7.57;;
84254;SDS011;74400;44.692;18.998;2024-03-22T12:23:51;11.45;;;6.70;;
84254;SDS011;74400;44.692;18.998;2024-03-22T12:26:17;12.50;;;6.13;;
84254;SDS011;74400;44.692;18.998;2024-03-22T12:28:43;10.63;;;7.03;;
84254;SDS011;74400;44.692;18.998;2024-03-22T12:31:08;10.60;;;7.43;;
84254;SDS011;74400;44.692;18.998;2024-03-22T12:33:36;12.93;;;7.80;;
84254;SDS011;74400;44.692;18.998;2024-03-22T12:36:03;13.68;;;6.65;;
84254;SDS011;74400;44.692;18.998;2024-03-22T12:38:29;13.23;;;8.23;;
84254;SDS011;74400;44.692;18.998;2024-03-22T12:40:55;11.75;;;7.40;;
84254;SDS011;74400;44.692;18.998;2024-03-22T12:43:22;10.45;;;7.13;;
84254;SDS011;74400;44.692;18.998;2024-03-22T12:45:47;11.85;;;7.40;;
84254;SDS011;74400;44.692;18.998;2024-03-22T12:48:13;12.15;;;7.00;;
84254;SDS011;74400;44.692;18.998;2024-03-22T12:50:39;11.88;;;7.30;;
84254;SDS011;74400;44.692;18.998;2024-03-22T12:53:05;11.95;;;7.13;;
84254;SDS011;74400;44.692;18.998;2024-03-22T12:55:30;12.05;;;8.02;;
84254;SDS011;74400;44.692;18.998;2024-03-22T12:57:57;10.32;;;7.25;;
84254;SDS011;74400;44.692;18.998;2024-03-22T13:00:23;10.82;;;6.90;;
84254;SDS011;74400;44.692;18.998;2024-03-22T13:02:49;13.70;;;8.18;;
84254;SDS011;74400;44.692;18.998;2024-03-22T13:05:14;13.10;;;7.60;;
84254;SDS011;74400;44.692;18.998;2024-03-22T13:07:41;10.02;;;6.93;;
84254;SDS011;74400;44.692;18.998;2024-03-22T13:10:07;12.38;;;7.68;;
84254;SDS011;74400;44.692;18.998;2024-03-22T13:12:33;12.50;;;7.10;;
84254;SDS011;74400;44.692;18.998;2024-03-22T13:15:02;11.27;;;7.30;;
84254;SDS011;74400;44.692;18.998;2024-03-22T13:17:28;14.95;;;7.90;;
84254;SDS011;74400;44.692;18.998;2024-03-22T13:19:54;12.05;;;8.27;;
84254;SDS011;74400;44.692;18.998;2024-03-22T13:22:19;14.05;;;8.18;;
84254;SDS011;74400;44.692;18.998;2024-03-22T13:24:45;14.65;;;8.90;;
84254;SDS011;74400;44.692;18.998;2024-03-22T13:27:12;10.48;;;8.13;;
84254;SDS011;74400;44.692;18.998;2024-03-22T13:29:40;10.85;;;7.88;;
84254;SDS011;74400;44.692;18.998;2024-03-22T13:32:07;13.52;;;7.75;;
84254;SDS011;74400;44.692;18.998;2024-03-22T13:34:35;16.00;;;7.53;;
84254;SDS011;74400;44.692;18.998;2024-03-22T13:37:02;13.40;;;6.75;;
84254;SDS011;74400;44.692;18.998;2024-03-22T13:39:28;12.85;;;7.00;;
84254;SDS011;74400;44.692;18.998;2024-03-22T13:41:55;13.68;;;8.35;;
84254;SDS011;74400;44.692;18.998;2024-03-22T13:44:32;12.85;;;7.70;;
84254;SDS011;74400;44.692;18.998;2024-03-22T13:46:58;18.23;;;8.85;;
84254;SDS011;74400;44.692;18.998;2024-03-22T13:49:24;15.95;;;8.80;;
84254;SDS011;74400;44.692;18.998;2024-03-22T13:51:50;16.73;;;9.15;;
84254;SDS011;74400;44.692;18.998;2024-03-22T13:54:15;13.75;;;8.90;;
84254;SDS011;74400;44.692;18.998;2024-03-22T13:56:42;17.88;;;9.32;;
84254;SDS011;74400;44.692;18.998;2024-03-22T13:59:07;16.73;;;8.82;;
84254;SDS011;74400;44.692;18.998;2024-03-22T14:01:34;16.95;;;8.27;;
84254;SDS011;74400;44.692;18.998;2024-03-22T14:04:04;13.75;;;7.75;;
84254;SDS011;74400;44.692;18.998;2024-03-22T14:06:31;16.80;;;7.35;;
84254;SDS011;74400;44.692;18.998;2024-03-22T14:08:57;13.50;;;7.95;;
84254;SDS011;74400;44.692;18.998;2024-03-22T14:11:28;14.65;;;7.72;;
84254;SDS011;74400;44.692;18.998;2024-03-22T14:13:58;14.50;;;7.97;;
84254;SDS011;74400;44.692;18.998;2024-03-22T14:16:24;17.45;;;8.05;;
84254;SDS011;74400;44.692;18.998;2024-03-22T14:18:51;15.18;;;8.07;;
84254;SDS011;74400;44.692;18.998;2024-03-22T14:21:17;15.32;;;8.63;;
84254;SDS011;74400;44.692;18.998;2024-03-22T14:23:47;15.07;;;8.07;;
84254;SDS011;74400;44.692;18.998;2024-03-22T14:26:13;17.90;;;9.73;;
84254;SDS011;74400;44.692;18.998;2024-03-22T14:28:40;14.93;;;8.85;;
84254;SDS011;74400;44.692;18.998;2024-03-22T14:33:32;17.05;;;9.50;;
84254;SDS011;74400;44.692;18.998;2024-03-22T14:35:58;15.95;;;8.70;;